• Join FlightAware (Why Join?)
  • Login
  • US Flag 
08:15PM EDT


 

Airport Tracker/Info


-or-


 

Live Flight TrackerFlight Track Log ✈ N441S ✈ 19-Aug-2013 ✈ KMSO - KMSO

Flight Track Log - Related Links

Times and Time Zones

All times are in EDT time to prevent confusion due to time zone crossing. See the N441S flight status page for this flight to view local times or setup timezone preferences in your user account.

Time Position Orientation Groundspeed Altitude Reporting Facility
EDT Latitude Longitude Course Direction KTS MPH feet Rate Location/Type
11:11AM 46.9503 -114.1286 356° North 142 163 5,600  Level Salt Lake Center
11:13AM 46.9881 -114.0958 31° Northeast 152 175 7,400 1,740 Climbing Salt Lake Center
11:14AM 47.0281 -114.0981 358° North 146 168 9,200 1,740 Climbing Salt Lake Center
11:15AM 47.0683 -114.1014 357° North 146 168 11,000 1,740 Climbing Salt Lake Center
11:16AM 47.1139 -114.1036 358° North 152 175 12,800 1,620 Climbing Salt Lake Center
11:17AM 46.9163 -114.0906 356° North  Level Estimated
11:17AM 47.1575 -114.1067 357° North 157 181 14,400  Level Salt Lake Center
11:18AM 47.2011 -114.1108 356° North 167 192 15,800 1,200 Climbing Salt Lake Center
11:19AM 47.2489 -114.1119 359° North 173 199 17,000 1,320 Climbing Salt Lake Center
11:20AM 47.3097 -114.1161 357° North 183 211 18,600 1,380 Climbing Salt Lake Center
11:21AM 47.3594 -114.1189 358° North 182 209 19,900 1,140 Climbing Salt Lake Center
11:22AM 47.4094 -114.1231 357° North 182 209 21,000 1,080 Climbing Salt Lake Center
11:23AM 47.4600 -114.1261 358° North 183 211 22,200 1,020 Climbing Salt Lake Center
11:24AM 47.5117 -114.1286 358° North 184 212 23,200 840 Climbing Salt Lake Center
11:25AM 47.5664 -114.1328 357° North 197 227 24,000 840 Climbing Salt Lake Center
11:26AM 47.6328 -114.1367 358° North 197 227 25,000 900 Climbing Salt Lake Center
11:27AM 47.6625 -114.1794 316° Northwest 178 205 25,900 780 Climbing Salt Lake Center
11:28AM 47.6661 -114.2453 275° West 163 188 26,700 720 Climbing Salt Lake Center
11:29AM 47.6714 -114.3136 277° West 165 190 27,400 720 Climbing Salt Lake Center
11:30AM 47.6739 -114.3819 273° West 165 190 28,200 720 Climbing Salt Lake Center
11:31AM 47.6753 -114.4528 272° West 171 197 28,900 600 Climbing Salt Lake Center
11:32AM 47.6758 -114.5242 271° West 173 199 29,500 480 Climbing Salt Lake Center
11:33AM 47.6781 -114.6075 272° West 169 194 30,000 420 Climbing Salt Lake Center
11:34AM 47.6797 -114.6792 272° West 172 198 30,400 480 Climbing Salt Lake Center
11:35AM 47.6822 -114.7494 273° West 171 197 31,000 480 Climbing Salt Lake Center
11:36AM 47.6822 -114.8208 270° West 172 198 31,500 480 Climbing Salt Lake Center
11:37AM 47.6828 -114.8922 271° West 174 200 32,000 360 Climbing Seattle Center
11:38AM 47.6831 -114.9650 270° West 176 203 32,300 240 Climbing Seattle Center
11:39AM 47.6836 -115.0372 271° West 177 204 32,500 240 Climbing Seattle Center
11:40AM 47.6861 -115.1078 273° West 174 200 32,800 240 Climbing Seattle Center
11:41AM 47.6875 -115.1778 272° West 171 197 33,100 300 Climbing Seattle Center
11:42AM 47.6872 -115.2497 270° West 174 200 33,500 360 Climbing Seattle Center
11:43AM 47.6869 -115.3225 270° West 178 205 33,900 240 Climbing Seattle Center
11:44AM 47.6883 -115.3931 272° West 174 200 34,000  Climbing Seattle Center
11:45AM 47.6864 -115.4722 268° West 186 214 34,000  Level Seattle Center
11:46AM 47.6858 -115.5569 269° West 202 232 34,000  Level Seattle Center
11:47AM 47.6869 -115.6411 271° West 205 236 34,000  Level Seattle Center
11:48AM 47.6869 -115.7250 270° West 203 234 34,000  Level Seattle Center
11:49AM 47.6831 -115.8283 267° West 209 241 34,000  Level Seattle Center
11:50AM 47.6819 -115.9161 269° West 213 245 34,000  Level Seattle Center
11:51AM 47.6681 -115.9958 256° West 212 244 34,000  Level Seattle Center
11:52AM 47.6092 -116.0125 191° South 232 267 34,000  Level Seattle Center
11:53AM 47.6597 -116.0411 339° North 257 296 34,000  Level Seattle Center
11:54AM 47.7300 -116.0394 North 259 298 34,000  Level Seattle Center
11:56AM 47.8011 -116.0381 North 256 295 34,000  Level Seattle Center
11:57AM 47.8728 -116.0339 North 256 295 34,000  Level Seattle Center
11:58AM 47.9453 -116.0322 North 259 298 34,000  Level Seattle Center
11:59AM 48.0186 -116.0303 North 261 300 34,000  Level Seattle Center
12:00PM 48.1094 -116.0311 360° North 267 307 34,000  Level Seattle Center
12:01PM 48.1833 -116.0300 North 268 308 34,000  Level Seattle Center
12:02PM 48.2589 -116.0286 North 269 310 34,000  Level Seattle Center
12:03PM 48.3356 -116.0272 North 270 311 34,000  Level Seattle Center
12:04PM 48.4108 -116.0247 North 270 311 34,000  Level Seattle Center
12:05PM 48.4867 -116.0242 360° North 271 312 34,000  Level Seattle Center
12:06PM 48.5608 -116.0233 360° North 268 308 34,000  Level Seattle Center
12:07PM 48.6339 -116.0225 360° North 264 304 34,000  Level Seattle Center
12:08PM 48.7056 -116.0203 North 259 298 34,000  Level Seattle Center
12:09PM 48.7781 -116.0186 North 260 299 34,000  Level Seattle Center
12:10PM 48.8503 -116.0169 North 260 299 34,000  Level Seattle Center
12:11PM 48.9167 -116.0000 10° North 260 299 34,000  Level Vancouver Center
12:12PM 49.0000 -115.9833 North 270 311 34,000  Level Vancouver Center
12:13PM 49.0667 -116.0000 351° North 270 311 34,000  Level Vancouver Center
12:14PM 49.1500 -115.9833 North 270 311 34,000  Level Vancouver Center
12:15PM 49.2167 -115.9667 North 280 322 34,000  Level Vancouver Center
12:16PM 49.2667 -115.8833 47° Northeast 280 322 34,000  Level Vancouver Center
12:17PM 49.2000 -115.8667 171° South 260 299 34,100  Climbing Vancouver Center
12:18PM 49.1333 -115.8500 171° South 250 288 34,000 -60 Descending Vancouver Center
12:19PM 49.0667 -115.8667 189° South 250 288 34,000  Level Vancouver Center
12:20PM 49.0000 -115.8500 171° South 250 288 34,000  Level Vancouver Center
12:21PM 48.9333 -115.8667 189° South 250 288 34,000  Level Vancouver Center
12:22PM 48.8667 -115.8667 180° South 250 288 34,000  Level Vancouver Center
12:23PM 48.8000 -115.8667 180° South 250 288 34,000  Level Vancouver Center
12:24PM 48.7333 -115.8667 180° South 250 288 34,000  Level Vancouver Center
12:25PM 48.6333 -115.8667 180° South 250 288 34,000  Level Vancouver Center
12:26PM 48.5833 -115.8667 180° South 260 299 34,000  Level Vancouver Center
12:27PM 48.5167 -115.8833 189° South 250 288 34,000  Level Vancouver Center
12:28PM 48.4333 -115.8667 172° South 250 288 34,000  Level Vancouver Center
12:29PM 48.3667 -115.8833 189° South 250 288 34,000  Level Vancouver Center
12:30PM 48.2833 -115.8667 172° South 250 288 34,000  Level Vancouver Center
12:31PM 48.2167 -115.8833 189° South 250 288 34,000  Level Vancouver Center
12:32PM 48.1500 -115.8833 180° South 250 288 34,000  Level Vancouver Center
12:33PM 48.0833 -115.8667 171° South 250 288 34,000  Level Vancouver Center
12:34PM 48.0167 -115.8833 189° South 250 288 34,000  Level Vancouver Center
12:35PM 47.9500 -115.9000 190° South 250 288 34,000  Level Vancouver Center
12:36PM 47.8833 -115.8833 170° South 250 288 34,000  Level Vancouver Center
12:37PM 47.8000 -115.9000 188° South 250 288 34,000  Level Vancouver Center
12:38PM 47.7503 -115.9200 195° South 245 282 34,000  Level Seattle Center
12:39PM 47.6675 -115.9211 181° South 245 282 34,000  Level Seattle Center
12:40PM 47.5983 -115.9231 181° South 248 285 34,000  Level Seattle Center
12:41PM 47.5297 -115.9244 181° South 246 283 34,000  Level Seattle Center
12:42PM 47.4628 -115.9267 181° South 242 278 34,000  Level Seattle Center
12:43PM 47.3942 -115.9300 182° South 244 281 34,000  Level Seattle Center
12:44PM 47.3256 -115.9322 181° South 246 283 34,000  Level Seattle Center
12:45PM 47.2550 -115.9358 182° South 251 289 34,000  Level Seattle Center
12:46PM 47.1847 -115.9333 179° South 258 297 34,000  Level Seattle Center
12:47PM 47.1886 -115.8217 87° East 287 330 34,000  Level Seattle Center
12:48PM 47.2503 -115.8122 North 264 304 34,000  Level Seattle Center
12:49PM 47.3375 -115.8083 North 262 302 34,000  Level Seattle Center
12:50PM 47.4108 -115.8047 North 264 304 34,000  Level Seattle Center
12:51PM 47.4842 -115.8036 North 265 305 34,000  Level Seattle Center
12:52PM 47.5586 -115.8025 North 269 310 34,000  Level Seattle Center
12:54PM 47.6336 -115.8008 North 271 312 34,000  Level Seattle Center
12:55PM 47.7081 -115.7978 North 269 310 34,000  Level Seattle Center
12:56PM 47.7842 -115.7964 North 273 314 34,000  Level Seattle Center
12:57PM 47.8592 -115.7939 North 273 314 34,000  Level Seattle Center
12:58PM 47.9500 -115.7911 North 272 313 34,000  Level Seattle Center
12:59PM 48.0267 -115.7892 North 274 315 34,000  Level Seattle Center
01:00PM 48.1028 -115.7872 North 274 315 34,000  Level Seattle Center
01:01PM 48.1803 -115.7883 359° North 276 318 34,000  Level Seattle Center
01:02PM 48.2561 -115.7872 North 274 315 34,000  Level Seattle Center
01:03PM 48.3314 -115.7836 North 269 310 34,000  Level Seattle Center
01:04PM 48.4056 -115.7819 North 267 307 34,000  Level Seattle Center
01:05PM 48.4803 -115.7808 North 269 310 34,000  Level Seattle Center
01:06PM 48.5556 -115.7789 North 269 310 34,000  Level Seattle Center
01:07PM 48.6472 -115.7750 North 274 315 34,000  Level Seattle Center
01:08PM 48.7258 -115.7750 360° North 279 321 34,000  Level Seattle Center
01:09PM 48.8042 -115.7719 North 281 323 34,000  Level Seattle Center
01:10PM 48.8839 -115.7703 North 284 327 34,000  Level Seattle Center
01:11PM 48.9617 -115.7669 North 282 325 34,000  Level Seattle Center
01:12PM 49.0403 -115.7658 North 282 325 34,000  Level Seattle Center
01:13PM 49.1178 -115.7653 360° North 280 322 34,000  Level Seattle Center
01:14PM 49.1961 -115.7625 North 282 325 34,000  Level Seattle Center
01:15PM 49.2733 -115.7433 North 292 336 34,000  Level Seattle Center
01:16PM 49.2628 -115.6347 98° East 304 350 34,000  Level Seattle Center
01:17PM 49.1819 -115.6428 184° South 250 288 34,000  Level Seattle Center
01:18PM 49.1139 -115.6428 180° South 247 284 34,000  Level Seattle Center
01:19PM 49.0450 -115.6442 181° South 247 284 34,000  Level Seattle Center
01:20PM 48.9761 -115.6475 182° South 249 287 34,000  Level Seattle Center
01:21PM 48.9069 -115.6486 181° South 249 287 34,000  Level Seattle Center
01:22PM 48.8375 -115.6506 181° South 250 288 34,000  Level Seattle Center
01:23PM 48.7683 -115.6525 181° South 249 287 34,000  Level Seattle Center
01:24PM 48.6992 -115.6558 182° South 250 288 34,000  Level Seattle Center
01:25PM 48.6153 -115.6561 180° South 251 289 34,000  Level Seattle Center
01:26PM 48.5447 -115.6578 181° South 255 293 34,000  Level Seattle Center
01:27PM 48.4719 -115.6611 182° South 260 299 34,000  Level Seattle Center
01:28PM 48.3972 -115.6633 181° South 267 307 34,000  Level Seattle Center
01:29PM 48.3228 -115.6650 181° South 269 310 34,000  Level Seattle Center
01:30PM 48.2494 -115.6672 181° South 266 306 34,000  Level Seattle Center
01:31PM 48.1756 -115.6692 181° South 267 307 34,000  Level Seattle Center
01:32PM 48.1033 -115.6703 181° South 264 304 34,000  Level Seattle Center
01:33PM 48.0328 -115.6728 181° South 260 299 34,100  Climbing Seattle Center
01:34PM 47.9500 -115.6758 181° South 255 293 34,000 -60 Descending Seattle Center
01:35PM 47.8806 -115.6772 181° South 253 291 34,000  Level Seattle Center
01:36PM 47.8111 -115.6781 180° South 251 289 34,000  Level Seattle Center
01:37PM 47.7422 -115.6794 181° South 250 288 34,000  Level Seattle Center
01:38PM 47.6742 -115.6822 182° South 246 283 34,000  Level Seattle Center
01:40PM 47.6053 -115.6839 181° South 247 284 34,000  Level Seattle Center
01:41PM 47.5361 -115.6861 181° South 248 285 34,000  Level Seattle Center
01:42PM 47.4664 -115.6881 181° South 250 288 34,000  Level Seattle Center
01:43PM 47.3800 -115.6906 181° South 258 297 34,000  Level Seattle Center
01:44PM 47.3081 -115.6903 180° South 259 298 34,000  Level Seattle Center
01:45PM 47.2389 -115.6928 181° South 252 290 34,000  Level Seattle Center
01:46PM 47.1636 -115.6917 179° South 256 295 34,000  Level Seattle Center
01:47PM 47.1453 -115.5850 104° East 295 339 34,000  Level Seattle Center
01:48PM 47.1436 -115.4600 91° East 303 349 34,000  Level Seattle Center
01:49PM 47.1369 -115.3394 95° East 312 359 34,000  Level Seattle Center
01:50PM 47.1311 -115.2161 94° East 308 354 34,000  Level Seattle Center
01:51PM 47.1228 -115.0903 96° East 310 357 34,000  Level Seattle Center
01:52PM 47.1153 -114.9400 94° East 310 357 34,000  Level Seattle Center
01:53PM 47.1061 -114.8161 96° East 308 354 34,000  Level Seattle Center
01:54PM 47.0922 -114.6947 99° East 304 350 34,000  Level Seattle Center
01:55PM 47.0778 -114.5700 100° East 309 356 34,000  Level Seattle Center
01:56PM 47.0522 -114.4253 104° East 307 353 34,000  Level Salt Lake Center
01:57PM 47.0397 -114.3036 99° East 305 351 34,000  Level Salt Lake Center
01:58PM 47.1183 -114.2744 14° North 266 306 34,000  Level Salt Lake Center
01:59PM 47.1714 -114.3244 327° Northwest 248 285 34,000  Level Salt Lake Center
02:00PM 47.1244 -114.3728 215° Southwest 238 274 34,000  Level Salt Lake Center
02:01PM 47.0533 -114.3708 179° South 256 295 34,000  Level Salt Lake Center
02:02PM 46.9828 -114.3506 169° South 275 316 34,000  Level Salt Lake Center
02:03PM 47.0042 -114.2567 71° East 283 326 34,000  Level Salt Lake Center
02:04PM 47.0886 -114.2817 349° North 259 298 34,000  Level Salt Lake Center
02:05PM 47.1653 -114.2739 North 275 316 34,000  Level Salt Lake Center
02:06PM 47.2414 -114.2703 North 274 315 34,000  Level Salt Lake Center
02:07PM 47.3169 -114.2661 North 272 313 34,000  Level Salt Lake Center
02:08PM 47.3939 -114.2600 North 275 316 34,000  Level Salt Lake Center
02:10PM 47.4706 -114.2581 North 277 319 34,000  Level Salt Lake Center
02:11PM 47.5639 -114.2522 North 280 322 34,000  Level Salt Lake Center
02:12PM 47.6411 -114.2483 North 279 321 34,000  Level Salt Lake Center
02:13PM 47.7178 -114.2428 North 276 318 34,000  Level Salt Lake Center
02:14PM 47.7922 -114.2408 North 271 312 34,000  Level Salt Lake Center
02:15PM 47.8669 -114.2358 North 271 312 34,000  Level Salt Lake Center
02:16PM 47.9586 -114.2289 North 276 318 34,000 -60 Level Salt Lake Center
02:17PM 48.0189 -114.1736 32° Northeast 296 341 33,900 -540 Descending Salt Lake Center
02:18PM 48.0217 -114.0431 88° East 339 390 32,900 -1,020 Descending Salt Lake Center
02:19PM 48.0886 -114.0578 352° North 287 330 31,900 -1,200 Descending Salt Lake Center
02:20PM 48.0381 -114.1181 219° Southwest 284 327 30,500 -1,260 Descending Salt Lake Center
02:21PM 47.9556 -114.1244 183° South 295 339 29,300 -780 Descending Salt Lake Center
02:22PM 47.8647 -114.1219 179° South 272 313 29,000 -660 Descending Salt Lake Center
02:23PM 47.7972 -114.1200 179° South 246 283 28,000 -1,500 Descending Salt Lake Center
02:24PM 47.7203 -114.1186 179° South 270 311 26,000 -1,980 Descending Salt Lake Center
02:25PM 47.6408 -114.1144 178° South 283 326 24,000 -1,920 Descending Salt Lake Center
02:26PM 47.5592 -114.1119 179° South 292 336 22,000 -2,040 Descending Salt Lake Center
02:27PM 47.4836 -114.1111 180° South 274 315 19,800 -2,100 Descending Salt Lake Center
02:28PM 47.4100 -114.1078 178° South 266 306 17,700 -2,280 Descending Salt Lake Center
02:29PM 47.3214 -114.1039 178° South 266 306 15,100 -2,340 Descending Salt Lake Center
02:30PM 47.2486 -114.1019 179° South 261 300 12,900 -2,160 Descending Salt Lake Center
02:31PM 47.1731 -114.1022 180° South 255 293 10,700 -1,440 Descending Salt Lake Center
02:32PM 47.1064 -114.1153 188° South 227 261 10,000 -420 Descending Salt Lake Center
02:33PM 47.0511 -114.1239 186° South 206 237 9,900  Descending Salt Lake Center
02:34PM 46.9953 -114.1322 186° South 190 219 10,000 -360 Climbing Salt Lake Center
02:35PM 46.9458 -114.1397 186° South 182 209 9,200 -1,080 Descending Salt Lake Center
02:36PM 46.8933 -114.1236 168° South 189 217 7,800 -1,440 Descending Salt Lake Center
02:37PM 46.8550 -114.0797 142° Southeast 179 206 6,300 -1,740 Descending Salt Lake Center
02:38PM 46.8839 -114.0400 43° Northeast 175 201 4,300 -1,500 Descending Salt Lake Center
02:40PM 46.9100 -114.0817 313° West 142 163 3,200 -1,080 Descending Salt Lake Center